createdAt,value
2018-05-27T00:00:22.754Z,0
2018-05-27T00:01:31.616Z,0
2018-05-27T00:02:40.762Z,0
2018-05-27T00:03:49.624Z,0
2018-05-27T00:04:58.487Z,0
2018-05-27T00:06:07.350Z,0
2018-05-27T00:07:16.494Z,0
2018-05-27T00:08:25.627Z,0
2018-05-27T00:09:34.489Z,0
2018-05-27T00:10:43.352Z,0
2018-05-27T00:11:52.218Z,0
2018-05-27T00:13:01.086Z,0
2018-05-27T00:14:09.946Z,0
2018-05-27T00:15:19.084Z,0
2018-05-27T00:16:27.947Z,0
2018-05-27T00:17:36.813Z,0
2018-05-27T00:18:45.954Z,0
2018-05-27T00:19:54.825Z,0
2018-05-27T00:21:03.965Z,0
2018-05-27T00:22:12.845Z,0
2018-05-27T00:23:21.985Z,0
2018-05-27T00:24:30.850Z,0
2018-05-27T00:25:39.714Z,0
2018-05-27T00:26:48.577Z,0
2018-05-27T00:27:57.438Z,0
2018-05-27T00:29:06.302Z,0
2018-05-27T00:30:15.166Z,0
2018-05-27T00:31:24.031Z,0
2018-05-27T00:32:32.899Z,0
2018-05-27T00:33:41.767Z,0
2018-05-27T00:34:50.678Z,0
2018-05-27T00:35:59.543Z,0
2018-05-27T00:37:08.405Z,0
2018-05-27T00:38:17.271Z,0
2018-05-27T00:39:26.134Z,0
2018-05-27T00:40:34.996Z,0
2018-05-27T00:41:43.861Z,0
2018-05-27T00:42:52.724Z,0
2018-05-27T00:44:01.589Z,0
2018-05-27T00:45:10.449Z,0
2018-05-27T00:46:19.589Z,0
2018-05-27T00:47:28.452Z,0
2018-05-27T00:48:37.307Z,0
2018-05-27T00:49:46.465Z,0
2018-05-27T00:50:55.885Z,0
2018-05-27T00:52:04.746Z,0
2018-05-27T00:53:13.609Z,0
2018-05-27T00:54:22.472Z,0
2018-05-27T00:55:31.614Z,0
2018-05-27T00:56:40.523Z,0
2018-05-27T00:57:49.628Z,0
2018-05-27T00:58:58.502Z,0
2018-05-27T01:00:07.359Z,0
2018-05-27T01:01:16.224Z,0
2018-05-27T01:02:25.089Z,0
2018-05-27T01:03:33.957Z,0
2018-05-27T01:04:42.813Z,0
2018-05-27T01:05:51.954Z,0
2018-05-27T01:07:00.819Z,0
2018-05-27T01:08:09.682Z,0
2018-05-27T01:09:18.875Z,0
2018-05-27T01:10:28.022Z,0
2018-05-27T01:11:36.889Z,0
2018-05-27T01:12:45.748Z,0
2018-05-27T01:13:54.901Z,0
2018-05-27T01:15:04.049Z,0
2018-05-27T01:16:12.915Z,0
2018-05-27T01:17:22.053Z,0
2018-05-27T01:18:31.199Z,0
2018-05-27T01:19:40.062Z,0
2018-05-27T01:20:48.927Z,0
2018-05-27T01:21:57.794Z,0
2018-05-27T01:23:06.655Z,0
2018-05-27T01:24:15.519Z,0
2018-05-27T01:25:24.382Z,0
2018-05-27T01:26:33.295Z,0
2018-05-27T01:27:42.159Z,0
2018-05-27T01:28:51.025Z,0
2018-05-27T01:29:59.886Z,0
2018-05-27T01:31:09.032Z,0
2018-05-27T01:32:17.893Z,0
2018-05-27T01:33:27.033Z,0
2018-05-27T01:34:35.895Z,0
2018-05-27T01:35:44.756Z,0
2018-05-27T01:36:53.619Z,0
2018-05-27T01:38:02.483Z,0
2018-05-27T01:39:11.908Z,0
2018-05-27T01:40:21.051Z,0
2018-05-27T01:41:29.911Z,0
2018-05-27T01:42:38.773Z,0
2018-05-27T01:43:47.634Z,0
2018-05-27T01:44:56.496Z,0
2018-05-27T01:46:05.360Z,0
2018-05-27T01:47:14.224Z,0
2018-05-27T01:48:23.086Z,0
2018-05-27T01:49:31.952Z,0
2018-05-27T01:50:40.815Z,0
2018-05-27T01:51:49.681Z,0
2018-05-27T01:52:59.102Z,0
2018-05-27T01:54:08.249Z,0
2018-05-27T01:55:17.109Z,0
2018-05-27T01:56:26.253Z,0
2018-05-27T01:57:35.121Z,0
2018-05-27T01:58:43.980Z,0
2018-05-27T01:59:52.844Z,0
2018-05-27T02:01:02.039Z,0
2018-05-27T02:02:10.899Z,0
2018-05-27T02:03:19.760Z,0
2018-05-27T02:04:28.904Z,0
2018-05-27T02:05:37.767Z,0
2018-05-27T02:06:46.674Z,0
2018-05-27T02:07:55.492Z,0
2018-05-27T02:09:04.353Z,0
2018-05-27T02:10:13.219Z,0
2018-05-27T02:11:22.410Z,0
2018-05-27T02:12:31.553Z,0
2018-05-27T02:13:40.414Z,0
2018-05-27T02:14:49.551Z,0
2018-05-27T02:15:58.419Z,0
2018-05-27T02:17:07.279Z,0
2018-05-27T02:18:16.190Z,0
2018-05-27T02:19:25.337Z,0
2018-05-27T02:20:34.201Z,0
2018-05-27T02:21:43.065Z,0
2018-05-27T02:22:51.926Z,0
2018-05-27T02:24:00.789Z,0
2018-05-27T02:25:09.651Z,0
2018-05-27T02:26:18.560Z,0
2018-05-27T02:27:27.710Z,0
2018-05-27T02:28:36.578Z,0
2018-05-27T02:29:45.438Z,0
2018-05-27T02:30:54.858Z,0
2018-05-27T02:32:03.997Z,0
2018-05-27T02:33:13.422Z,0
2018-05-27T02:34:22.563Z,0
2018-05-27T02:35:31.704Z,0
2018-05-27T02:36:40.852Z,0
2018-05-27T02:37:49.716Z,0
2018-05-27T02:38:59.153Z,0
2018-05-27T02:40:08.312Z,0
2018-05-27T02:41:17.453Z,0
2018-05-27T02:42:26.316Z,0
2018-05-27T02:43:35.181Z,0
2018-05-27T02:44:44.043Z,0
2018-05-27T02:45:52.905Z,0
2018-05-27T02:47:02.334Z,0
2018-05-27T02:48:11.758Z,0
2018-05-27T02:49:20.890Z,0
2018-05-27T02:50:29.953Z,0
2018-05-27T02:51:39.099Z,0
2018-05-27T02:52:48.012Z,0
2018-05-27T02:53:56.881Z,0
2018-05-27T02:55:05.741Z,0
2018-05-27T02:56:14.882Z,0
2018-05-27T02:57:24.027Z,0
2018-05-27T02:58:33.170Z,0
2018-05-27T02:59:42.316Z,0
2018-05-27T03:00:51.531Z,0
2018-05-27T03:02:01.238Z,0
2018-05-27T03:03:10.394Z,5
2018-05-27T03:04:19.267Z,5
2018-05-27T03:05:28.425Z,5
2018-05-27T03:06:37.580Z,5
2018-05-27T03:07:46.723Z,5
2018-05-27T03:08:55.582Z,5
2018-05-27T03:10:04.782Z,5
2018-05-27T03:11:14.200Z,5
2018-05-27T03:12:23.063Z,10
2018-05-27T03:13:32.208Z,10
2018-05-27T03:14:41.072Z,10
2018-05-27T03:15:49.933Z,10
2018-05-27T03:16:59.088Z,10
2018-05-27T03:18:08.275Z,15
2018-05-27T03:19:17.137Z,15
2018-05-27T03:20:25.997Z,15
2018-05-27T03:21:34.861Z,15
2018-05-27T03:22:44.007Z,15
2018-05-27T03:23:53.190Z,15
2018-05-27T03:25:02.053Z,20
2018-05-27T03:26:10.915Z,20
2018-05-27T03:27:19.827Z,20
2018-05-27T03:28:28.971Z,25
2018-05-27T03:29:37.833Z,25
2018-05-27T03:30:46.980Z,25
2018-05-27T03:31:56.413Z,25
2018-05-27T03:33:05.551Z,25
2018-05-27T03:34:14.415Z,30
2018-05-27T03:35:23.279Z,30
2018-05-27T03:36:32.418Z,30
2018-05-27T03:37:41.284Z,35
2018-05-27T03:38:50.145Z,35
2018-05-27T03:39:59.039Z,35
2018-05-27T03:41:07.879Z,40
2018-05-27T03:42:16.740Z,40
2018-05-27T03:43:25.881Z,40
2018-05-27T03:44:34.794Z,45
2018-05-27T03:45:43.661Z,45
2018-05-27T03:46:52.521Z,45
2018-05-27T03:48:01.666Z,45
2018-05-27T03:49:10.527Z,50
2018-05-27T03:50:19.392Z,50
2018-05-27T03:51:28.256Z,50
2018-05-27T03:52:37.120Z,50
2018-05-27T03:53:45.979Z,50
2018-05-27T03:54:54.844Z,50
2018-05-27T03:56:03.983Z,55
2018-05-27T03:57:12.846Z,55
2018-05-27T03:58:21.711Z,55
2018-05-27T03:59:30.570Z,55
2018-05-27T04:00:39.436Z,55
2018-05-27T04:01:48.350Z,55
2018-05-27T04:02:57.222Z,60
2018-05-27T04:04:06.371Z,60
2018-05-27T04:05:15.795Z,65
2018-05-27T04:06:24.935Z,65
2018-05-27T04:07:34.085Z,70
2018-05-27T04:08:43.502Z,70
2018-05-27T04:09:52.363Z,75
2018-05-27T04:11:01.227Z,75
2018-05-27T04:12:10.091Z,80
2018-05-27T04:13:18.954Z,80
2018-05-27T04:14:27.819Z,80
2018-05-27T04:15:36.958Z,80
2018-05-27T04:16:45.821Z,85
2018-05-27T04:17:54.685Z,85
2018-05-27T04:19:03.596Z,85
2018-05-27T04:20:12.460Z,90
2018-05-27T04:21:21.322Z,90
2018-05-27T04:22:30.283Z,95
2018-05-27T04:23:39.145Z,95
2018-05-27T04:24:48.283Z,95
2018-05-27T04:25:57.145Z,95
2018-05-27T04:27:06.011Z,95
2018-05-27T04:28:14.875Z,95
2018-05-27T04:29:23.741Z,95
2018-05-27T04:30:32.886Z,95
2018-05-27T04:31:42.024Z,95
2018-05-27T04:32:51.168Z,100
2018-05-27T04:34:00.029Z,100
2018-05-27T04:35:08.894Z,100
2018-05-27T04:36:17.800Z,105
2018-05-27T04:37:26.663Z,105
2018-05-27T04:38:35.525Z,100
2018-05-27T04:39:44.387Z,105
2018-05-27T04:40:53.248Z,110
2018-05-27T04:42:02.389Z,105
2018-05-27T04:43:11.527Z,105
2018-05-27T04:44:20.392Z,105
2018-05-27T04:45:29.258Z,110
2018-05-27T04:46:38.116Z,105
2018-05-27T04:47:46.978Z,105
2018-05-27T04:48:55.841Z,105
2018-05-27T04:50:04.702Z,105
2018-05-27T04:51:13.563Z,105
2018-05-27T04:52:22.426Z,105
2018-05-27T04:53:31.288Z,115
2018-05-27T04:54:40.171Z,115
2018-05-27T04:55:49.037Z,115
2018-05-27T04:56:57.899Z,115
2018-05-27T04:58:07.041Z,115
2018-05-27T04:59:15.906Z,115
2018-05-27T05:00:24.769Z,120
2018-05-27T05:01:33.626Z,120
2018-05-27T05:02:42.490Z,120
2018-05-27T05:03:51.974Z,120
2018-05-27T05:05:00.838Z,120
2018-05-27T05:06:09.699Z,120
2018-05-27T05:07:18.561Z,125
2018-05-27T05:08:27.424Z,125
2018-05-27T05:09:36.649Z,125
2018-05-27T05:10:45.509Z,125
2018-05-27T05:11:54.377Z,125
2018-05-27T05:13:03.522Z,125
2018-05-27T05:14:12.665Z,125
2018-05-27T05:15:21.531Z,130
2018-05-27T05:16:30.395Z,130
2018-05-27T05:17:39.811Z,130
2018-05-27T05:18:48.675Z,130
2018-05-27T05:19:57.543Z,130
2018-05-27T05:21:06.409Z,130
2018-05-27T05:22:15.928Z,130
2018-05-27T05:23:24.742Z,130
2018-05-27T05:24:33.606Z,135
2018-05-27T05:25:42.473Z,135
2018-05-27T05:26:51.618Z,135
2018-05-27T05:28:00.528Z,135
2018-05-27T05:29:09.386Z,135
2018-05-27T05:30:18.292Z,135
2018-05-27T05:31:27.110Z,135
2018-05-27T05:32:35.974Z,140
2018-05-27T05:33:45.119Z,140
2018-05-27T05:34:54.272Z,140
2018-05-27T05:36:03.414Z,140
2018-05-27T05:37:12.556Z,140
2018-05-27T05:38:21.419Z,140
2018-05-27T05:39:30.281Z,140
2018-05-27T05:40:39.422Z,140
2018-05-27T05:41:48.285Z,145
2018-05-27T05:42:57.430Z,145
2018-05-27T05:44:06.298Z,145
2018-05-27T05:45:15.163Z,145
2018-05-27T05:46:24.032Z,145
2018-05-27T05:47:32.897Z,145
2018-05-27T05:48:41.762Z,145
2018-05-27T05:49:50.905Z,145
2018-05-27T05:51:00.048Z,145
2018-05-27T05:52:08.914Z,145
2018-05-27T05:53:17.776Z,145
2018-05-27T05:54:26.639Z,150
2018-05-27T05:55:35.502Z,150
2018-05-27T05:56:44.367Z,150
2018-05-27T05:57:53.509Z,150
2018-05-27T05:59:02.646Z,150
2018-05-27T06:00:11.792Z,150
2018-05-27T06:01:20.960Z,150
2018-05-27T06:02:29.817Z,150
2018-05-27T06:03:38.678Z,150
2018-05-27T06:04:47.542Z,150
2018-05-27T06:05:56.406Z,155
2018-05-27T06:07:05.268Z,155
2018-05-27T06:08:14.131Z,155
2018-05-27T06:09:22.997Z,155
2018-05-27T06:10:31.860Z,155
2018-05-27T06:11:41.005Z,155
2018-05-27T06:12:50.423Z,155
2018-05-27T06:13:59.569Z,155
2018-05-27T06:15:08.430Z,155
2018-05-27T06:16:17.292Z,155
2018-05-27T06:17:26.432Z,155
2018-05-27T06:18:35.294Z,155
2018-05-27T06:19:44.310Z,160
2018-05-27T06:20:53.172Z,160
2018-05-27T06:22:02.035Z,160
2018-05-27T06:23:10.900Z,160
2018-05-27T06:24:19.776Z,160
2018-05-27T06:25:28.642Z,160
2018-05-27T06:26:38.067Z,160
2018-05-27T06:27:46.929Z,160
2018-05-27T06:28:56.075Z,160
2018-05-27T06:30:04.938Z,160
2018-05-27T06:31:13.803Z,160
2018-05-27T06:32:22.666Z,160
2018-05-27T06:33:31.531Z,165
2018-05-27T06:34:40.454Z,165
2018-05-27T06:35:49.323Z,165
2018-05-27T06:36:58.190Z,165
2018-05-27T06:38:07.055Z,165
2018-05-27T06:39:15.917Z,165
2018-05-27T06:40:24.780Z,165
2018-05-27T06:41:33.645Z,165
2018-05-27T06:42:42.511Z,165
2018-05-27T06:43:51.377Z,165
2018-05-27T06:45:00.247Z,170
2018-05-27T06:46:09.387Z,170
2018-05-27T06:47:18.250Z,170
2018-05-27T06:48:27.396Z,165
2018-05-27T06:49:36.261Z,170
2018-05-27T06:50:45.127Z,165
2018-05-27T06:51:53.997Z,165
2018-05-27T06:53:02.855Z,165
2018-05-27T06:54:11.997Z,165
2018-05-27T06:55:20.860Z,165
2018-05-27T06:56:29.725Z,165
2018-05-27T06:57:38.863Z,165
2018-05-27T06:58:47.726Z,165
2018-05-27T06:59:56.589Z,170
2018-05-27T07:01:05.731Z,170
2018-05-27T07:02:14.593Z,170
2018-05-27T07:03:23.457Z,170
2018-05-27T07:04:33.571Z,170
2018-05-27T07:05:42.823Z,170
2018-05-27T07:06:51.688Z,170
2018-05-27T07:08:00.551Z,170
2018-05-27T07:09:09.701Z,170
2018-05-27T07:10:18.562Z,170
2018-05-27T07:11:27.727Z,170
2018-05-27T07:12:36.589Z,170
2018-05-27T07:13:45.740Z,175
2018-05-27T07:14:54.603Z,175
2018-05-27T07:16:03.472Z,175
2018-05-27T07:17:12.665Z,175
2018-05-27T07:18:21.807Z,175
2018-05-27T07:19:30.672Z,175
2018-05-27T07:20:39.538Z,175
2018-05-27T07:21:48.412Z,175
2018-05-27T07:22:57.558Z,175
2018-05-27T07:24:06.422Z,175
2018-05-27T07:25:15.291Z,175
2018-05-27T07:26:24.156Z,180
2018-05-27T07:27:33.018Z,180
2018-05-27T07:28:42.164Z,180
2018-05-27T07:29:51.025Z,180
2018-05-27T07:30:59.892Z,185
2018-05-27T07:32:08.820Z,185
2018-05-27T07:33:17.966Z,180
2018-05-27T07:34:26.841Z,180
2018-05-27T07:35:35.698Z,180
2018-05-27T07:36:44.841Z,180
2018-05-27T07:37:53.708Z,180
2018-05-27T07:39:02.574Z,180
2018-05-27T07:40:11.718Z,185
2018-05-27T07:41:21.144Z,190
2018-05-27T07:42:30.008Z,185
2018-05-27T07:43:39.438Z,185
2018-05-27T07:44:48.304Z,185
2018-05-27T07:45:57.166Z,185
2018-05-27T07:47:06.032Z,185
2018-05-27T07:48:15.182Z,185
2018-05-27T07:49:24.047Z,185
2018-05-27T07:50:32.914Z,185
2018-05-27T07:51:41.782Z,185
2018-05-27T07:52:50.966Z,190
2018-05-27T07:53:59.833Z,190
2018-05-27T07:55:08.700Z,190
2018-05-27T07:56:17.847Z,190
2018-05-27T07:57:27.011Z,190
2018-05-27T07:58:36.372Z,190
2018-05-27T07:59:45.235Z,190
2018-05-27T08:00:54.101Z,185
2018-05-27T08:02:02.966Z,185
2018-05-27T08:03:12.163Z,185
2018-05-27T08:04:21.029Z,190
2018-05-27T08:05:29.895Z,190
2018-05-27T08:06:38.759Z,190
2018-05-27T08:07:47.623Z,190
2018-05-27T08:08:56.492Z,190
2018-05-27T08:10:05.640Z,190
2018-05-27T08:11:14.506Z,190
2018-05-27T08:12:23.370Z,190
2018-05-27T08:13:32.237Z,195
2018-05-27T08:14:41.102Z,195
2018-05-27T08:15:50.250Z,195
2018-05-27T08:16:59.110Z,195
2018-05-27T08:18:08.537Z,195
2018-05-27T08:19:17.404Z,195
2018-05-27T08:20:26.322Z,195
2018-05-27T08:21:35.404Z,195
2018-05-27T08:22:44.556Z,200
2018-05-27T08:23:53.434Z,200
2018-05-27T08:25:02.363Z,200
2018-05-27T08:26:11.514Z,200
2018-05-27T08:27:20.377Z,200
2018-05-27T08:28:29.246Z,200
2018-05-27T08:29:38.109Z,200
2018-05-27T08:30:46.979Z,200
2018-05-27T08:31:56.119Z,200
2018-05-27T08:33:04.983Z,200
2018-05-27T08:34:13.858Z,200
2018-05-27T08:35:22.730Z,200
2018-05-27T08:36:31.593Z,205
2018-05-27T08:37:40.742Z,205
2018-05-27T08:38:49.900Z,205
2018-05-27T08:39:58.761Z,205
2018-05-27T08:41:07.901Z,205
2018-05-27T08:42:16.768Z,205
2018-05-27T08:43:25.654Z,205
2018-05-27T08:44:34.779Z,205
2018-05-27T08:45:43.646Z,205
2018-05-27T08:46:53.064Z,205
2018-05-27T08:48:02.217Z,205
2018-05-27T08:49:11.084Z,205
2018-05-27T08:50:19.952Z,205
2018-05-27T08:51:28.821Z,205
2018-05-27T08:52:37.690Z,205
2018-05-27T08:53:46.555Z,205
2018-05-27T08:54:55.472Z,205
2018-05-27T08:56:04.338Z,210
2018-05-27T08:57:13.240Z,210
2018-05-27T08:58:22.077Z,210
2018-05-27T08:59:30.946Z,210
2018-05-27T09:00:39.814Z,210
2018-05-27T09:01:48.684Z,210
2018-05-27T09:02:57.550Z,210
2018-05-27T09:04:06.415Z,210
2018-05-27T09:05:15.280Z,210
2018-05-27T09:06:24.703Z,210
2018-05-27T09:07:33.568Z,210
2018-05-27T09:08:42.434Z,210
2018-05-27T09:09:51.299Z,215
2018-05-27T09:11:00.164Z,215
2018-05-27T09:12:09.030Z,210
2018-05-27T09:13:17.896Z,215
2018-05-27T09:14:26.764Z,215
2018-05-27T09:15:35.631Z,215
2018-05-27T09:16:44.776Z,215
2018-05-27T09:17:53.641Z,215
2018-05-27T09:19:02.509Z,220
2018-05-27T09:20:11.382Z,225
2018-05-27T09:21:20.530Z,220
2018-05-27T09:22:29.394Z,220
2018-05-27T09:23:38.827Z,220
2018-05-27T09:24:47.763Z,220
2018-05-27T09:25:56.562Z,220
2018-05-27T09:27:05.429Z,220
2018-05-27T09:28:14.580Z,220
2018-05-27T09:29:23.778Z,220
2018-05-27T09:30:32.643Z,225
2018-05-27T09:31:42.067Z,225
2018-05-27T09:32:51.214Z,225
2018-05-27T09:34:00.083Z,230
2018-05-27T09:35:08.948Z,230
2018-05-27T09:36:18.098Z,230
2018-05-27T09:37:26.965Z,235
2018-05-27T09:38:35.833Z,235
2018-05-27T09:39:44.985Z,230
2018-05-27T09:40:54.137Z,230
2018-05-27T09:42:03.008Z,230
2018-05-27T09:43:11.876Z,230
2018-05-27T09:44:20.744Z,230
2018-05-27T09:45:30.023Z,230
2018-05-27T09:46:38.880Z,235
2018-05-27T09:47:47.753Z,235
2018-05-27T09:48:57.179Z,235
2018-05-27T09:50:06.328Z,240
2018-05-27T09:51:15.554Z,240
2018-05-27T09:52:24.422Z,240
2018-05-27T09:53:33.293Z,240
2018-05-27T09:54:42.162Z,240
2018-05-27T09:55:51.034Z,240
2018-05-27T09:57:00.185Z,240
2018-05-27T09:58:09.108Z,240
2018-05-27T09:59:17.942Z,240
2018-05-27T10:00:26.862Z,240
2018-05-27T10:01:36.009Z,240
2018-05-27T10:02:44.877Z,240
2018-05-27T10:03:53.795Z,240
2018-05-27T10:05:02.941Z,245
2018-05-27T10:06:11.808Z,245
2018-05-27T10:07:20.680Z,245
2018-05-27T10:08:29.554Z,245
2018-05-27T10:09:38.422Z,245
2018-05-27T10:10:47.576Z,245
2018-05-27T10:11:56.795Z,250
2018-05-27T10:13:05.663Z,250
2018-05-27T10:14:14.816Z,250
2018-05-27T10:15:23.682Z,250
2018-05-27T10:16:32.918Z,250
2018-05-27T10:17:41.810Z,250
2018-05-27T10:18:50.676Z,250
2018-05-27T10:19:59.836Z,250
2018-05-27T10:21:08.761Z,250
2018-05-27T10:22:17.902Z,255
2018-05-27T10:23:26.770Z,255
2018-05-27T10:24:35.638Z,260
2018-05-27T10:25:44.505Z,260
2018-05-27T10:26:53.648Z,260
2018-05-27T10:28:02.793Z,260
2018-05-27T10:29:11.937Z,260
2018-05-27T10:30:20.806Z,260
2018-05-27T10:31:29.674Z,265
2018-05-27T10:32:38.540Z,265
2018-05-27T10:33:47.408Z,265
2018-05-27T10:34:56.280Z,265
2018-05-27T10:36:05.419Z,270
2018-05-27T10:37:14.290Z,270
2018-05-27T10:38:23.254Z,270
2018-05-27T10:39:32.411Z,275
2018-05-27T10:40:41.278Z,275
2018-05-27T10:41:50.150Z,275
2018-05-27T10:42:59.019Z,270
2018-05-27T10:44:07.893Z,275
2018-05-27T10:45:17.328Z,280
2018-05-27T10:46:26.194Z,280
2018-05-27T10:47:35.617Z,280
2018-05-27T10:48:44.484Z,285
2018-05-27T10:49:53.352Z,275
2018-05-27T10:51:02.222Z,270
2018-05-27T10:52:11.507Z,270
2018-05-27T10:53:20.586Z,275
2018-05-27T10:54:29.455Z,280
2018-05-27T10:55:38.327Z,280
2018-05-27T10:56:47.191Z,280
2018-05-27T10:57:56.057Z,275
2018-05-27T10:59:05.203Z,280
2018-05-27T11:00:14.089Z,280
2018-05-27T11:01:23.023Z,280
2018-05-27T11:02:31.886Z,285
2018-05-27T11:03:41.028Z,290
2018-05-27T11:04:49.898Z,285
2018-05-27T11:05:58.819Z,285
2018-05-27T11:07:07.926Z,290
2018-05-27T11:08:16.803Z,295
2018-05-27T11:09:25.964Z,295
2018-05-27T11:10:35.107Z,295
2018-05-27T11:11:43.978Z,295
2018-05-27T11:12:52.896Z,290
2018-05-27T11:14:02.044Z,290
2018-05-27T11:15:10.913Z,290
2018-05-27T11:16:19.783Z,290
2018-05-27T11:17:28.967Z,290
2018-05-27T11:18:37.795Z,295
2018-05-27T11:19:46.664Z,300
2018-05-27T11:20:55.819Z,295
2018-05-27T11:22:04.690Z,290
2018-05-27T11:23:13.557Z,290
2018-05-27T11:24:22.425Z,320
2018-05-27T11:25:31.296Z,320
2018-05-27T11:26:40.165Z,320
2018-05-27T11:27:49.033Z,325
2018-05-27T11:28:57.903Z,325
2018-05-27T11:30:06.823Z,330
2018-05-27T11:31:15.699Z,330
2018-05-27T11:32:25.123Z,330
2018-05-27T11:33:33.994Z,335
2018-05-27T11:34:42.862Z,335
2018-05-27T11:35:51.733Z,335
2018-05-27T11:37:00.685Z,335
2018-05-27T11:38:09.478Z,340
2018-05-27T11:39:18.622Z,340
2018-05-27T11:40:27.490Z,345
2018-05-27T11:41:36.367Z,340
2018-05-27T11:42:45.235Z,345
2018-05-27T11:43:54.106Z,355
2018-05-27T11:45:03.249Z,360
2018-05-27T11:46:12.121Z,370
2018-05-27T11:47:21.046Z,380
2018-05-27T11:48:29.917Z,390
2018-05-27T11:49:38.780Z,410
2018-05-27T11:50:47.654Z,760
2018-05-27T11:51:56.804Z,2300
2018-05-27T11:53:05.674Z,2930
2018-05-27T11:54:14.877Z,3125
2018-05-27T11:55:23.714Z,3085
2018-05-27T11:56:32.581Z,3065
2018-05-27T11:57:41.452Z,3285
2018-05-27T11:58:50.326Z,3250
2018-05-27T11:59:59.193Z,2700
2018-05-27T12:01:08.067Z,2945
2018-05-27T12:02:16.939Z,3335
2018-05-27T12:03:26.098Z,3050
2018-05-27T12:04:34.979Z,3075
2018-05-27T12:05:44.414Z,3295
2018-05-27T12:06:53.846Z,3190
2018-05-27T12:08:02.719Z,3300
2018-05-27T12:09:12.901Z,3365
2018-05-27T12:10:22.421Z,3155
2018-05-27T12:11:31.579Z,3210
2018-05-27T12:12:40.733Z,3195
2018-05-27T12:13:49.606Z,3165
2018-05-27T12:14:58.486Z,3160
2018-05-27T12:16:07.364Z,3155
2018-05-27T12:17:16.245Z,3280
2018-05-27T12:18:25.405Z,3410
2018-05-27T12:19:34.281Z,3475
2018-05-27T12:20:43.163Z,3370
2018-05-27T12:21:52.036Z,3405
2018-05-27T12:23:01.190Z,3625
2018-05-27T12:24:10.401Z,3475
2018-05-27T12:25:19.263Z,3615
2018-05-27T12:26:28.134Z,3670
2018-05-27T12:27:37.014Z,3180
2018-05-27T12:28:45.892Z,3475
2018-05-27T12:29:55.274Z,3365
2018-05-27T12:31:04.028Z,3165
2018-05-27T12:32:12.907Z,2975
2018-05-27T12:33:22.063Z,3285
2018-05-27T12:34:30.992Z,3140
2018-05-27T12:35:39.871Z,2835
2018-05-27T12:36:49.183Z,3085
2018-05-27T12:37:58.030Z,3580
2018-05-27T12:39:07.401Z,3620
2018-05-27T12:40:16.281Z,3275
2018-05-27T12:41:25.160Z,3460
2018-05-27T12:42:34.042Z,3500
2018-05-27T12:43:42.926Z,3530
2018-05-27T12:44:51.802Z,3275
2018-05-27T12:46:00.678Z,3275
2018-05-27T12:47:09.562Z,3445
2018-05-27T12:48:18.720Z,3580
2018-05-27T12:49:27.602Z,3630
2018-05-27T12:50:36.481Z,3435
2018-05-27T12:51:45.358Z,3455
2018-05-27T12:52:54.241Z,3450
2018-05-27T12:54:03.121Z,3420
2018-05-27T12:55:12.011Z,3395
2018-05-27T12:56:21.167Z,3395
2018-05-27T12:57:30.050Z,3380
2018-05-27T12:58:39.493Z,3475
2018-05-27T12:59:48.654Z,3740
2018-05-27T13:00:57.816Z,3500
2018-05-27T13:02:06.979Z,3385
2018-05-27T13:03:15.857Z,3595
2018-05-27T13:04:24.744Z,3655
2018-05-27T13:05:33.625Z,3305
2018-05-27T13:06:42.506Z,3395
2018-05-27T13:07:51.391Z,3465
2018-05-27T13:09:00.267Z,4045
2018-05-27T13:10:09.153Z,3715
2018-05-27T13:11:18.036Z,3665
2018-05-27T13:12:27.207Z,3730
2018-05-27T13:13:36.093Z,3650
2018-05-27T13:14:44.976Z,3685
2018-05-27T13:15:53.865Z,3475
2018-05-27T13:17:04.408Z,3365
2018-05-27T13:18:13.566Z,3385
2018-05-27T13:19:22.447Z,3550
2018-05-27T13:20:31.617Z,3615
2018-05-27T13:21:40.499Z,3685
2018-05-27T13:22:49.383Z,3655
2018-05-27T13:23:58.265Z,3775
2018-05-27T13:25:07.149Z,3725
2018-05-27T13:26:16.030Z,3775
2018-05-27T13:27:24.913Z,3835
2018-05-27T13:28:33.798Z,3505
2018-05-27T13:29:42.961Z,3470
2018-05-27T13:30:51.894Z,3905
2018-05-27T13:32:01.108Z,3905
2018-05-27T13:33:09.993Z,3975
2018-05-27T13:34:18.875Z,3920
2018-05-27T13:35:27.764Z,3850
2018-05-27T13:36:36.646Z,3955
2018-05-27T13:37:45.805Z,3930
2018-05-27T13:38:54.689Z,3805
2018-05-27T13:40:03.579Z,3845
2018-05-27T13:41:12.463Z,4080
2018-05-27T13:42:21.346Z,3940
2018-05-27T13:43:30.229Z,3775
2018-05-27T13:44:39.125Z,3620
2018-05-27T13:45:48.056Z,3465
2018-05-27T13:46:56.965Z,3715
2018-05-27T13:48:05.846Z,3705
2018-05-27T13:49:15.441Z,3705
2018-05-27T13:50:24.563Z,3895
2018-05-27T13:51:33.448Z,3835
2018-05-27T13:52:42.330Z,3790
2018-05-27T13:53:51.498Z,3895
2018-05-27T13:55:00.381Z,3965
2018-05-27T13:56:09.264Z,3705
2018-05-27T13:57:18.148Z,3765
2018-05-27T13:58:27.311Z,3820
2018-05-27T13:59:36.204Z,3835
2018-05-27T14:00:45.090Z,3870
2018-05-27T14:01:54.250Z,3690
2018-05-27T14:03:03.134Z,3800
2018-05-27T14:04:12.018Z,3695
2018-05-27T14:05:21.460Z,3690
2018-05-27T14:06:30.627Z,3935
2018-05-27T14:07:39.508Z,3750
2018-05-27T14:08:48.397Z,3725
2018-05-27T14:09:57.285Z,3790
2018-05-27T14:11:06.170Z,3490
2018-05-27T14:12:15.056Z,2745
2018-05-27T14:13:23.938Z,2055
2018-05-27T14:14:33.107Z,1865
2018-05-27T14:15:42.270Z,1955
2018-05-27T14:16:51.161Z,2145
2018-05-27T14:18:00.039Z,2005
2018-05-27T14:19:08.923Z,2060
2018-05-27T14:20:17.807Z,2680
2018-05-27T14:21:26.970Z,3570
2018-05-27T14:22:35.955Z,3810
2018-05-27T14:23:44.846Z,3660
2018-05-27T14:24:53.730Z,3720
2018-05-27T14:26:02.900Z,3635
2018-05-27T14:27:12.059Z,3395
2018-05-27T14:28:21.232Z,3010
2018-05-27T14:29:30.630Z,3405
2018-05-27T14:30:40.164Z,3610
2018-05-27T14:31:49.090Z,3715
2018-05-27T14:32:57.975Z,3660
2018-05-27T14:34:06.858Z,3615
2018-05-27T14:35:15.744Z,3750
2018-05-27T14:36:24.919Z,3625
2018-05-27T14:37:33.806Z,3505
2018-05-27T14:38:42.690Z,3610
2018-05-27T14:39:51.577Z,3635
2018-05-27T14:41:00.739Z,3715
2018-05-27T14:42:09.642Z,3615
2018-05-27T14:43:18.536Z,3665
2018-05-27T14:44:27.414Z,3795
2018-05-27T14:45:36.302Z,2180
2018-05-27T14:46:45.188Z,690
2018-05-27T14:47:54.349Z,2735
2018-05-27T14:49:06.234Z,1870
2018-05-27T14:50:15.405Z,3255
2018-05-27T14:51:24.290Z,3635
2018-05-27T14:52:33.174Z,3810
2018-05-27T14:53:46.787Z,3780
2018-05-27T14:54:59.490Z,3585
2018-05-27T14:56:12.622Z,3530
2018-05-27T14:57:24.640Z,3340
2018-05-27T14:58:34.078Z,1185
2018-05-27T14:59:43.058Z,745
2018-05-27T15:00:51.946Z,1470
2018-05-27T15:02:00.833Z,1475
2018-05-27T15:03:10.272Z,2155
2018-05-27T15:04:23.314Z,3410
2018-05-27T15:05:36.283Z,3380
2018-05-27T15:06:49.176Z,3065
2018-05-27T15:08:02.133Z,3110
2018-05-27T15:09:11.604Z,3500
2018-05-27T15:10:20.502Z,3035
2018-05-27T15:11:29.376Z,3270
2018-05-27T15:12:38.256Z,3290
2018-05-27T15:13:47.434Z,3260
2018-05-27T15:14:56.365Z,3210
2018-05-27T15:16:05.250Z,3120
2018-05-27T15:17:14.133Z,3150
2018-05-27T15:18:23.353Z,3010
2018-05-27T15:19:32.518Z,3050
2018-05-27T15:20:41.965Z,3030
2018-05-27T15:21:50.849Z,3000
2018-05-27T15:22:59.732Z,2995
2018-05-27T15:24:08.616Z,2865
2018-05-27T15:25:17.501Z,2915
2018-05-27T15:26:26.658Z,2895
2018-05-27T15:27:35.542Z,2900
2018-05-27T15:28:44.423Z,2810
2018-05-27T15:29:53.306Z,3010
2018-05-27T15:31:02.468Z,3330
2018-05-27T15:32:11.746Z,2890
2018-05-27T15:33:20.860Z,2655
2018-05-27T15:34:29.757Z,2290
2018-05-27T15:35:38.646Z,2590
2018-05-27T15:36:47.542Z,2795
2018-05-27T15:37:56.439Z,2900
2018-05-27T15:39:05.324Z,2850
2018-05-27T15:40:14.488Z,2535
2018-05-27T15:41:23.372Z,2375
2018-05-27T15:42:32.258Z,2660
2018-05-27T15:43:41.297Z,2735
2018-05-27T15:44:50.453Z,2770
2018-05-27T15:45:59.336Z,2665
2018-05-27T15:47:08.216Z,2530
2018-05-27T15:48:17.119Z,2615
2018-05-27T15:49:25.988Z,2420
2018-05-27T15:50:35.147Z,2275
2018-05-27T15:51:44.033Z,740
2018-05-27T15:52:52.914Z,655
2018-05-27T15:54:01.798Z,1355
2018-05-27T15:55:10.680Z,800
2018-05-27T15:56:19.563Z,595
2018-05-27T15:57:28.446Z,560